Time;durP1;ratioP1;P1;durP2;ratioP2;P2;SDS_P1;SDS_P2;PMS_P1;PMS_P2;Temp;Humidity;BMP_temperature;BMP_pressure;BME280_temperature;BME280_humidity;BME280_pressure;Samples;Min_cycle;Max_cycle;Signal;HPM_P1;HPM_P2
2023/04/07 00:00:28;;;;;;;8.40;5.60;;;5.80;24.10;;;;;;5029674;28;46498;-68
2023/04/07 00:02:54;;;;;;;10.50;6.17;;;5.80;24.10;;;;;;5032257;28;46417;-66
2023/04/07 00:05:20;;;;;;;14.83;5.10;;;5.90;24.20;;;;;;5029006;28;46411;-66
2023/04/07 00:07:45;;;;;;;9.87;4.87;;;5.90;24.20;;;;;;5031795;28;47090;-65
2023/04/07 00:10:11;;;;;;;8.53;4.50;;;6.00;24.20;;;;;;5027061;28;45844;-66
2023/04/07 00:12:37;;;;;;;8.50;4.70;;;6.10;24.30;;;;;;5029694;28;46574;-67
2023/04/07 00:15:02;;;;;;;9.77;5.10;;;6.20;24.30;;;;;;5032891;28;46379;-66
2023/04/07 00:17:28;;;;;;;7.97;4.83;;;6.20;24.30;;;;;;5031575;28;47750;-67
2023/04/07 00:19:54;;;;;;;10.80;5.20;;;6.30;24.20;;;;;;5031480;28;46419;-66
2023/04/07 00:22:19;;;;;;;6.17;3.87;;;6.40;24.00;;;;;;5029000;28;46375;-67
2023/04/07 00:24:45;;;;;;;6.63;4.13;;;6.40;23.80;;;;;;5031409;28;46013;-66
2023/04/07 00:27:10;;;;;;;6.70;4.27;;;6.50;23.70;;;;;;5032002;28;46424;-66
2023/04/07 00:29:36;;;;;;;6.63;3.77;;;6.50;23.70;;;;;;5028728;28;46357;-68
2023/04/07 00:32:01;;;;;;;9.90;3.50;;;6.50;23.60;;;;;;5031479;28;46694;-68
2023/04/07 00:34:27;;;;;;;5.60;3.10;;;6.50;23.50;;;;;;5032260;28;46365;-68
2023/04/07 00:36:53;;;;;;;6.03;3.00;;;6.60;23.60;;;;;;5027808;28;46473;-68
2023/04/07 00:39:19;;;;;;;7.80;2.90;;;6.60;23.60;;;;;;5030557;28;46420;-68
2023/04/07 00:41:45;;;;;;;6.00;2.53;;;6.60;23.70;;;;;;5030326;28;46290;-68
2023/04/07 00:44:11;;;;;;;4.17;2.60;;;6.60;23.70;;;;;;5028884;28;46593;-68
2023/04/07 00:46:37;;;;;;;4.47;2.70;;;6.70;23.90;;;;;;5034590;28;46579;-68
2023/04/07 00:49:03;;;;;;;8.83;2.23;;;6.70;24.10;;;;;;5030215;28;45878;-68
2023/04/07 00:51:28;;;;;;;5.90;2.60;;;6.70;24.30;;;;;;5027401;28;46496;-68
2023/04/07 00:53:55;;;;;;;3.67;2.40;;;6.70;24.50;;;;;;5030517;28;46647;-68
2023/04/07 00:56:20;;;;;;;5.43;3.00;;;6.70;24.70;;;;;;5028589;28;46441;-67
2023/04/07 00:58:46;;;;;;;4.40;3.00;;;6.70;24.70;;;;;;5028089;28;46360;-68
2023/04/07 01:01:21;;;;;;;3.50;2.10;;;6.70;24.70;;;;;;5028479;28;46509;-67
2023/04/07 01:04:02;;;;;;;5.53;2.73;;;6.60;24.60;;;;;;5034057;28;46423;-68
2023/04/07 01:06:34;;;;;;;4.90;2.83;;;6.60;24.60;;;;;;5028816;28;46359;-68
2023/04/07 01:09:23;;;;;;;6.33;3.17;;;6.60;24.60;;;;;;5032375;28;46438;-68
2023/04/07 01:12:28;;;;;;;4.20;2.60;;;6.70;24.70;;;;;;5028209;28;46708;-68
2023/04/07 01:14:59;;;;;;;9.50;2.30;;;6.70;24.70;;;;;;5024097;28;46288;-68
2023/04/07 01:17:27;;;;;;;3.80;2.40;;;6.70;24.80;;;;;;5027975;28;47266;-68
2023/04/07 01:19:58;;;;;;;4.50;2.40;;;6.70;24.70;;;;;;5027791;28;45899;-69
2023/04/07 01:22:31;;;;;;;4.17;2.23;;;6.70;24.70;;;;;;5025023;28;46338;-69
2023/04/07 01:25:15;;;;;;;4.70;2.83;;;6.70;25.00;;;;;;5032765;28;46564;-68
2023/04/07 01:27:59;;;;;;;4.50;2.77;;;6.70;25.90;;;;;;5028676;28;46585;-68
2023/04/07 01:30:29;;;;;;;4.90;2.50;;;6.70;26.00;;;;;;5026936;28;46400;-68
2023/04/07 01:32:58;;;;;;;4.17;2.20;;;6.60;26.10;;;;;;5026449;28;46347;-68
2023/04/07 01:35:31;;;;;;;4.70;2.70;;;6.60;26.30;;;;;;5026854;28;46386;-66
2023/04/07 01:37:59;;;;;;;4.77;3.00;;;6.60;26.70;;;;;;5032450;28;46367;-66
2023/04/07 01:40:25;;;;;;;9.03;2.73;;;6.50;27.60;;;;;;5027131;28;46421;-66
2023/04/07 01:42:52;;;;;;;5.87;3.30;;;6.40;28.50;;;;;;5027741;28;46243;-66
2023/04/07 01:45:19;;;;;;;4.90;2.63;;;6.40;29.00;;;;;;5029240;28;46421;-66
2023/04/07 01:47:45;;;;;;;5.00;2.87;;;6.40;29.50;;;;;;5026404;28;46402;-66
2023/04/07 01:50:11;;;;;;;5.60;3.20;;;6.30;30.00;;;;;;5025441;28;46362;-65
2023/04/07 01:52:38;;;;;;;4.23;2.60;;;6.30;30.50;;;;;;5024213;28;46651;-66
2023/04/07 01:55:05;;;;;;;4.63;2.80;;;6.30;30.00;;;;;;5028921;28;46367;-66
2023/04/07 01:57:31;;;;;;;5.50;3.40;;;6.30;30.10;;;;;;5025454;28;46514;-67
2023/04/07 01:59:57;;;;;;;10.53;2.80;;;6.40;30.00;;;;;;5026577;28;46341;-66
2023/04/07 02:02:23;;;;;;;5.73;3.17;;;6.40;30.00;;;;;;5028177;28;46449;-67
2023/04/07 02:04:57;;;;;;;5.37;2.90;;;6.40;29.80;;;;;;5027724;28;46361;-67
2023/04/07 02:07:39;;;;;;;4.07;2.67;;;6.40;30.10;;;;;;5026152;28;46485;-69
2023/04/07 02:10:07;;;;;;;5.10;3.00;;;6.50;30.00;;;;;;5026538;28;46438;-68
2023/04/07 02:12:36;;;;;;;7.33;3.20;;;6.50;29.80;;;;;;5026013;28;46383;-67
2023/04/07 02:15:03;;;;;;;7.47;3.70;;;6.60;29.60;;;;;;5025037;28;46434;-68
2023/04/07 02:17:33;;;;;;;7.03;4.10;;;6.60;29.40;;;;;;5024300;28;47076;-68
2023/04/07 02:20:01;;;;;;;5.43;3.43;;;6.60;29.30;;;;;;5028403;28;46695;-67
2023/04/07 02:22:27;;;;;;;7.90;3.97;;;6.70;29.40;;;;;;5027811;28;46357;-68
2023/04/07 02:24:53;;;;;;;6.33;3.50;;;6.60;29.30;;;;;;5028153;28;46436;-67
2023/04/07 02:27:19;;;;;;;6.10;3.30;;;6.70;29.50;;;;;;5026555;28;48299;-66
2023/04/07 02:29:45;;;;;;;5.73;3.23;;;6.70;29.50;;;;;;5028883;28;46335;-68
2023/04/07 02:32:10;;;;;;;7.83;3.50;;;6.70;29.50;;;;;;5027320;28;46724;-66
2023/04/07 02:34:36;;;;;;;6.10;3.83;;;6.70;29.50;;;;;;5028163;28;46453;-67
2023/04/07 02:37:02;;;;;;;7.40;3.73;;;6.70;29.60;;;;;;5026541;28;46930;-67
2023/04/07 02:39:27;;;;;;;4.97;3.20;;;6.60;29.70;;;;;;5027022;28;46284;-67
2023/04/07 02:41:53;;;;;;;9.47;4.00;;;6.60;29.70;;;;;;5029556;28;45833;-67
2023/04/07 02:44:18;;;;;;;5.93;3.20;;;6.60;29.90;;;;;;5028933;28;46495;-68
2023/04/07 02:46:44;;;;;;;6.73;3.77;;;6.60;29.90;;;;;;5028501;28;46429;-68
2023/04/07 02:49:10;;;;;;;9.50;3.87;;;6.60;30.10;;;;;;5030544;28;46511;-68
2023/04/07 02:51:35;;;;;;;6.93;3.70;;;6.60;30.30;;;;;;5031060;28;46330;-68
2023/04/07 02:54:01;;;;;;;6.90;3.53;;;6.60;30.40;;;;;;5034422;28;46659;-68
2023/04/07 02:56:26;;;;;;;7.70;3.40;;;6.60;31.70;;;;;;5028402;28;46503;-68
2023/04/07 02:58:52;;;;;;;5.40;3.00;;;6.60;30.60;;;;;;5026607;28;45808;-68
2023/04/07 03:01:18;;;;;;;7.53;3.93;;;6.50;30.60;;;;;;5030125;28;45868;-68
2023/04/07 03:03:43;;;;;;;4.27;3.23;;;6.50;30.80;;;;;;5028473;28;45863;-68
2023/04/07 03:06:09;;;;;;;4.80;3.20;;;6.60;30.90;;;;;;5033087;28;46588;-68
2023/04/07 03:08:35;;;;;;;7.40;3.53;;;6.60;30.90;;;;;;5030321;28;46358;-68
2023/04/07 03:11:01;;;;;;;6.87;4.23;;;6.50;31.00;;;;;;5032864;28;46474;-67
2023/04/07 03:13:28;;;;;;;6.70;4.20;;;6.60;31.20;;;;;;5030221;28;46378;-68
2023/04/07 03:15:54;;;;;;;7.20;4.00;;;6.60;31.20;;;;;;5027934;28;46844;-68
2023/04/07 03:18:19;;;;;;;9.50;3.90;;;6.50;31.40;;;;;;5036190;28;45871;-67
2023/04/07 03:20:47;;;;;;;6.60;3.80;;;6.50;31.50;;;;;;5031220;28;46612;-67
2023/04/07 03:23:13;;;;;;;6.13;4.00;;;6.60;31.50;;;;;;5029689;28;46743;-68
2023/04/07 03:25:39;;;;;;;6.30;3.77;;;6.60;31.60;;;;;;5031447;28;46415;-68
2023/04/07 03:28:05;;;;;;;6.73;3.90;;;6.60;31.60;;;;;;5024825;28;46434;-67
2023/04/07 03:30:31;;;;;;;8.43;4.13;;;6.50;31.60;;;;;;5029373;28;46512;-68
2023/04/07 03:32:56;;;;;;;6.93;4.00;;;6.60;31.80;;;;;;5029992;28;46462;-68
2023/04/07 03:35:22;;;;;;;5.97;3.77;;;6.50;31.70;;;;;;5030843;28;46244;-68
2023/04/07 03:37:47;;;;;;;6.13;3.40;;;6.50;31.90;;;;;;5027593;28;46370;-68
2023/04/07 03:40:13;;;;;;;7.00;3.50;;;6.50;32.10;;;;;;5026084;28;46414;-68
2023/04/07 03:42:39;;;;;;;5.90;3.77;;;6.50;32.40;;;;;;5029470;28;46417;-69
2023/04/07 03:45:05;;;;;;;5.83;3.80;;;6.50;32.70;;;;;;5027233;28;46955;-68
2023/04/07 03:47:30;;;;;;;5.40;3.50;;;6.50;32.70;;;;;;5025696;28;46417;-69
2023/04/07 03:49:56;;;;;;;5.80;4.10;;;6.40;32.90;;;;;;5028243;28;46303;-69
2023/04/07 03:52:21;;;;;;;6.77;4.10;;;6.40;33.00;;;;;;5029319;28;46580;-68
2023/04/07 03:54:47;;;;;;;7.80;4.50;;;6.40;33.30;;;;;;5026791;28;46390;-69
2023/04/07 03:57:13;;;;;;;6.20;4.20;;;6.30;33.40;;;;;;5028006;28;46412;-67
2023/04/07 03:59:38;;;;;;;7.70;4.70;;;6.30;33.80;;;;;;5029555;28;46373;-68
2023/04/07 04:02:04;;;;;;;8.77;3.97;;;6.20;34.10;;;;;;5030933;28;46362;-68
2023/04/07 04:04:30;;;;;;;7.50;4.30;;;6.20;34.60;;;;;;5027789;28;46421;-68
2023/04/07 04:06:56;;;;;;;6.40;4.13;;;6.10;34.70;;;;;;5029810;28;46375;-68
2023/04/07 04:09:22;;;;;;;5.50;3.60;;;6.10;34.90;;;;;;5026135;28;46433;-68
2023/04/07 04:11:47;;;;;;;5.90;3.60;;;6.10;35.20;;;;;;5030253;28;46370;-68
2023/04/07 04:14:13;;;;;;;7.27;4.00;;;6.10;36.00;;;;;;5030889;28;46411;-68
2023/04/07 04:16:39;;;;;;;8.00;4.80;;;6.10;36.00;;;;;;5025287;28;46406;-67
2023/04/07 04:19:04;;;;;;;6.43;4.00;;;6.10;36.00;;;;;;5026419;28;46473;-67
2023/04/07 04:21:30;;;;;;;7.83;4.80;;;6.10;36.10;;;;;;5025613;28;46423;-67
2023/04/07 04:23:56;;;;;;;6.50;3.90;;;6.10;36.10;;;;;;5031132;28;47292;-68
2023/04/07 04:26:24;;;;;;;7.30;4.23;;;6.20;36.10;;;;;;5028290;28;46556;-67
2023/04/07 04:28:50;;;;;;;9.30;4.53;;;6.10;36.10;;;;;;5031273;28;46545;-68
2023/04/07 04:31:16;;;;;;;5.57;4.10;;;6.20;36.10;;;;;;5031441;28;46433;-68
2023/04/07 04:33:42;;;;;;;6.67;4.40;;;6.20;36.10;;;;;;5031019;28;46335;-68
2023/04/07 04:36:07;;;;;;;8.17;5.37;;;6.20;36.10;;;;;;5028859;28;46382;-68
2023/04/07 04:38:33;;;;;;;8.50;5.40;;;6.20;36.10;;;;;;5031368;28;46687;-68
2023/04/07 04:40:58;;;;;;;8.70;5.23;;;6.20;36.10;;;;;;5027198;28;46431;-67
2023/04/07 04:43:24;;;;;;;8.97;5.20;;;6.20;36.20;;;;;;5027659;28;46485;-68
2023/04/07 04:45:50;;;;;;;9.00;5.30;;;6.20;36.20;;;;;;5029513;28;46420;-67
2023/04/07 04:48:16;;;;;;;11.17;5.60;;;6.20;36.80;;;;;;5028276;28;46711;-68
2023/04/07 04:50:42;;;;;;;11.40;5.80;;;6.10;37.20;;;;;;5029035;28;46588;-68
2023/04/07 04:53:09;;;;;;;7.43;5.37;;;6.10;37.40;;;;;;5029372;28;46532;-67
2023/04/07 04:55:35;;;;;;;8.87;5.03;;;6.10;37.80;;;;;;5027058;28;46353;-69
2023/04/07 04:58:01;;;;;;;6.93;5.00;;;6.10;38.30;;;;;;5023820;28;46420;-67
2023/04/07 05:00:26;;;;;;;7.87;5.30;;;6.10;38.50;;;;;;5027876;28;46353;-66
2023/04/07 05:02:52;;;;;;;9.60;5.13;;;6.10;38.70;;;;;;5032571;28;46377;-68
2023/04/07 05:05:18;;;;;;;8.73;5.07;;;6.10;38.90;;;;;;5028011;28;46573;-67
2023/04/07 05:07:43;;;;;;;11.30;6.20;;;6.00;40.20;;;;;;5025142;28;46439;-67
2023/04/07 05:10:09;;;;;;;10.10;6.10;;;6.00;41.00;;;;;;5027844;28;46531;-68
2023/04/07 05:12:35;;;;;;;7.60;5.13;;;6.00;41.20;;;;;;5024064;28;46503;-68
2023/04/07 05:15:01;;;;;;;8.83;5.27;;;6.00;41.00;;;;;;5026959;28;45843;-68
2023/04/07 05:17:26;;;;;;;8.63;5.53;;;6.00;40.80;;;;;;5028517;28;46505;-69
2023/04/07 05:19:52;;;;;;;9.83;5.50;;;6.10;41.00;;;;;;5026728;28;46350;-68
2023/04/07 05:22:17;;;;;;;9.17;5.53;;;6.10;40.70;;;;;;5028416;28;46437;-68
2023/04/07 05:24:43;;;;;;;10.20;6.80;;;6.20;40.70;;;;;;5026393;28;46778;-68
2023/04/07 05:27:09;;;;;;;11.77;6.20;;;6.20;40.70;;;;;;5026350;28;46340;-68
2023/04/07 05:29:35;;;;;;;7.33;4.70;;;6.10;41.10;;;;;;5027016;28;46430;-68
2023/04/07 05:32:00;;;;;;;10.10;5.73;;;6.20;40.90;;;;;;5024197;28;46395;-68
2023/04/07 05:34:26;;;;;;;9.13;5.70;;;6.20;41.00;;;;;;5026216;28;46380;-68
2023/04/07 05:36:52;;;;;;;9.83;5.70;;;6.20;41.10;;;;;;5029232;28;46445;-68
2023/04/07 05:39:18;;;;;;;9.30;5.67;;;6.20;41.30;;;;;;5033253;28;46330;-66
2023/04/07 05:41:44;;;;;;;10.80;7.07;;;6.20;41.60;;;;;;5033326;28;46375;-66
2023/04/07 05:44:09;;;;;;;15.33;6.37;;;6.30;41.40;;;;;;5030447;28;46389;-65
2023/04/07 05:46:35;;;;;;;10.83;6.07;;;6.40;41.50;;;;;;5027894;28;46480;-65
2023/04/07 05:49:01;;;;;;;13.77;5.90;;;6.40;41.90;;;;;;5027519;28;46318;-65
2023/04/07 05:51:26;;;;;;;9.50;6.00;;;6.40;42.20;;;;;;5028604;28;46490;-65
2023/04/07 05:53:52;;;;;;;13.23;6.37;;;6.40;42.10;;;;;;5024768;28;46391;-65
2023/04/07 05:56:18;;;;;;;9.20;5.73;;;6.50;41.70;;;;;;5027588;28;46676;-66
2023/04/07 05:58:43;;;;;;;10.90;6.60;;;6.60;41.70;;;;;;5024309;28;46344;-65
2023/04/07 06:01:09;;;;;;;9.23;5.87;;;6.50;41.80;;;;;;5024393;28;46260;-66
2023/04/07 06:03:35;;;;;;;11.30;6.07;;;6.50;42.10;;;;;;5028122;28;46257;-65
2023/04/07 06:06:00;;;;;;;11.03;6.17;;;6.60;42.00;;;;;;5027138;28;46236;-65
2023/04/07 06:08:26;;;;;;;9.10;6.67;;;6.60;41.70;;;;;;5027040;28;46620;-66
2023/04/07 06:10:51;;;;;;;10.67;5.90;;;6.50;42.20;;;;;;5030989;28;46377;-66
2023/04/07 06:13:17;;;;;;;9.27;5.73;;;6.50;42.70;;;;;;5029618;28;46236;-65
2023/04/07 06:15:42;;;;;;;11.53;6.30;;;6.40;43.50;;;;;;5029036;28;46458;-66
2023/04/07 06:18:08;;;;;;;11.17;7.30;;;6.30;43.90;;;;;;5027851;28;46575;-66
2023/04/07 06:20:34;;;;;;;10.10;7.07;;;6.40;43.70;;;;;;5028836;28;46457;-66
2023/04/07 06:23:00;;;;;;;12.23;6.67;;;6.50;43.30;;;;;;5030141;28;45864;-66
2023/04/07 06:25:26;;;;;;;13.20;5.60;;;6.40;43.20;;;;;;5033324;28;46439;-64
2023/04/07 06:27:53;;;;;;;10.93;6.43;;;6.50;42.70;;;;;;5030408;28;46432;-66
2023/04/07 06:30:18;;;;;;;11.67;6.67;;;6.60;42.30;;;;;;5027790;28;46540;-66
2023/04/07 06:32:44;;;;;;;9.77;6.60;;;6.70;42.20;;;;;;5028984;28;46370;-66
2023/04/07 06:35:10;;;;;;;12.20;7.70;;;6.80;41.80;;;;;;5032183;28;46443;-65
2023/04/07 06:37:35;;;;;;;10.30;6.87;;;6.80;41.50;;;;;;5031414;28;46675;-65
2023/04/07 06:40:01;;;;;;;14.43;6.67;;;6.90;41.40;;;;;;5030609;28;46556;-64
2023/04/07 06:42:26;;;;;;;11.80;6.60;;;6.90;41.20;;;;;;5027450;28;46342;-64
2023/04/07 06:44:52;;;;;;;11.73;7.13;;;7.00;41.00;;;;;;5027077;28;46513;-64
2023/04/07 06:47:18;;;;;;;13.60;7.63;;;7.10;40.90;;;;;;5032879;28;46382;-65
2023/04/07 06:49:43;;;;;;;10.43;7.40;;;7.20;40.70;;;;;;5029755;28;46496;-64
2023/04/07 06:52:09;;;;;;;9.87;6.30;;;7.30;40.40;;;;;;5035245;28;46659;-65
2023/04/07 06:54:35;;;;;;;9.93;6.07;;;7.30;40.20;;;;;;5026959;28;46469;-64
2023/04/07 06:57:01;;;;;;;10.90;6.37;;;7.40;40.10;;;;;;5031661;28;45895;-65
2023/04/07 06:59:26;;;;;;;10.23;6.53;;;7.50;39.80;;;;;;5029448;28;46834;-65
2023/04/07 07:01:52;;;;;;;9.30;6.80;;;7.60;39.60;;;;;;5027189;28;46394;-65
2023/04/07 07:04:17;;;;;;;10.77;6.73;;;7.60;39.50;;;;;;5034748;28;46495;-65
2023/04/07 07:06:43;;;;;;;10.50;6.63;;;7.80;39.50;;;;;;5028714;28;46429;-64
2023/04/07 07:09:09;;;;;;;8.93;6.23;;;7.90;39.10;;;;;;5030853;28;46406;-65
2023/04/07 07:11:34;;;;;;;10.40;6.37;;;7.90;39.10;;;;;;5031721;28;46452;-65
2023/04/07 07:14:00;;;;;;;11.20;6.53;;;8.10;38.70;;;;;;5032048;28;46416;-65
2023/04/07 07:16:25;;;;;;;9.77;6.10;;;8.20;38.40;;;;;;5034420;28;45927;-64
2023/04/07 07:18:51;;;;;;;12.00;7.30;;;8.30;38.00;;;;;;5028055;28;46963;-65
2023/04/07 07:21:17;;;;;;;13.23;7.97;;;8.50;38.10;;;;;;5033926;28;45839;-65
2023/04/07 07:23:43;;;;;;;15.20;7.80;;;8.50;38.20;;;;;;5032897;28;46480;-65
2023/04/07 07:26:09;;;;;;;12.50;6.53;;;8.50;38.10;;;;;;5030149;28;46060;-65
2023/04/07 07:28:35;;;;;;;10.57;6.60;;;8.70;38.00;;;;;;5032543;28;47169;-65
2023/04/07 07:31:07;;;;;;;13.20;7.57;;;8.80;37.40;;;;;;5032822;28;45886;-64
2023/04/07 07:33:33;;;;;;;11.33;6.90;;;8.90;37.00;;;;;;5026412;28;46502;-65
2023/04/07 07:35:59;;;;;;;11.00;6.30;;;9.10;36.60;;;;;;5031126;28;46603;-65
2023/04/07 07:38:26;;;;;;;14.30;7.23;;;9.20;36.30;;;;;;5030328;28;46595;-65
2023/04/07 07:40:52;;;;;;;12.97;7.50;;;9.40;36.00;;;;;;5029393;28;45837;-66
2023/04/07 07:43:17;;;;;;;11.27;6.43;;;9.40;35.60;;;;;;5032054;28;46397;-66
2023/04/07 07:45:43;;;;;;;11.73;6.50;;;9.40;35.80;;;;;;5028038;28;45950;-66
2023/04/07 07:48:09;;;;;;;12.47;7.07;;;9.50;35.70;;;;;;5028965;28;47115;-66
2023/04/07 07:50:35;;;;;;;9.80;6.30;;;9.60;35.30;;;;;;5026762;28;46381;-65
2023/04/07 07:53:00;;;;;;;10.40;6.30;;;9.90;34.70;;;;;;5029030;28;46375;-65
2023/04/07 07:55:26;;;;;;;10.17;5.90;;;10.00;33.30;;;;;;5031445;28;46299;-66
2023/04/07 07:57:52;;;;;;;12.00;6.90;;;10.20;33.00;;;;;;5023620;28;46419;-68
2023/04/07 08:00:17;;;;;;;13.90;7.80;;;10.20;32.60;;;;;;5027535;28;46302;-67
2023/04/07 08:02:43;;;;;;;9.83;5.93;;;10.30;32.40;;;;;;5026386;28;46200;-68
2023/04/07 08:05:10;;;;;;;9.73;6.80;;;10.60;32.10;;;;;;5030566;28;46847;-69
2023/04/07 08:07:36;;;;;;;10.27;6.47;;;10.80;31.60;;;;;;5027647;28;46791;-69
2023/04/07 08:10:02;;;;;;;9.80;6.13;;;11.00;31.10;;;;;;5028491;28;46516;-69
2023/04/07 08:12:27;;;;;;;10.20;5.70;;;11.20;30.80;;;;;;5031649;28;46473;-68
2023/04/07 08:14:53;;;;;;;9.80;5.40;;;11.40;30.00;;;;;;5033748;28;46662;-68
2023/04/07 08:17:18;;;;;;;9.03;5.47;;;11.60;29.50;;;;;;5031545;28;46466;-66
2023/04/07 08:19:45;;;;;;;10.60;5.80;;;11.60;29.20;;;;;;5026477;28;46438;-69
2023/04/07 08:22:10;;;;;;;7.60;5.20;;;11.70;28.60;;;;;;5029449;28;46350;-68
2023/04/07 08:24:36;;;;;;;8.93;5.60;;;11.80;28.50;;;;;;5029407;28;46426;-68
2023/04/07 08:27:01;;;;;;;9.20;6.10;;;12.00;28.20;;;;;;5026869;28;46468;-68
2023/04/07 08:29:27;;;;;;;11.07;6.03;;;12.00;27.50;;;;;;5026237;28;46816;-69
2023/04/07 08:31:53;;;;;;;12.17;6.90;;;12.00;27.50;;;;;;5029095;28;46345;-68
2023/04/07 08:34:20;;;;;;;10.13;5.93;;;12.20;27.70;;;;;;5034358;28;46668;-68
2023/04/07 08:36:46;;;;;;;10.03;5.90;;;12.50;27.50;;;;;;5028942;28;46891;-68
2023/04/07 08:39:11;;;;;;;9.93;5.70;;;12.60;27.20;;;;;;5029514;28;46564;-67
2023/04/07 08:41:38;;;;;;;7.97;5.20;;;12.70;26.80;;;;;;5031727;28;46531;-68
2023/04/07 08:44:06;;;;;;;8.83;5.77;;;12.70;26.10;;;;;;5033421;28;46602;-68
2023/04/07 08:46:33;;;;;;;8.93;5.03;;;12.90;26.30;;;;;;5026816;28;46325;-68
2023/04/07 08:49:00;;;;;;;9.60;5.33;;;13.00;26.20;;;;;;5029889;28;46599;-66
2023/04/07 08:51:31;;;;;;;10.20;5.53;;;13.00;25.90;;;;;;5030293;28;45940;-67
2023/04/07 08:54:10;;;;;;;9.03;6.07;;;12.80;25.80;;;;;;5026367;28;46512;-66
2023/04/07 08:56:40;;;;;;;14.67;5.30;;;13.00;25.20;;;;;;5030272;28;46381;-67
2023/04/07 08:59:07;;;;;;;6.57;4.60;;;12.90;25.00;;;;;;5027031;28;46382;-65
2023/04/07 09:01:35;;;;;;;12.23;5.10;;;12.60;24.90;;;;;;5028108;28;46273;-67
2023/04/07 09:04:02;;;;;;;7.90;5.60;;;12.20;25.50;;;;;;5026942;28;46468;-67
2023/04/07 09:06:31;;;;;;;8.77;5.77;;;12.40;25.30;;;;;;5034028;28;46783;-66
2023/04/07 09:08:58;;;;;;;9.43;5.17;;;12.50;25.00;;;;;;5027734;28;46400;-65
2023/04/07 09:11:25;;;;;;;8.73;5.37;;;12.70;24.60;;;;;;5030446;28;46497;-67
2023/04/07 09:13:50;;;;;;;8.73;5.40;;;12.60;24.50;;;;;;5030489;28;46743;-66
2023/04/07 09:16:16;;;;;;;7.20;5.20;;;12.50;24.40;;;;;;5031192;28;46501;-67
2023/04/07 09:18:42;;;;;;;9.43;5.20;;;12.40;24.50;;;;;;5031581;28;46813;-69
2023/04/07 09:21:07;;;;;;;9.37;4.70;;;12.70;23.80;;;;;;5026944;28;46371;-68
2023/04/07 09:23:41;;;;;;;7.10;5.10;;;12.80;23.20;;;;;;5029564;28;46421;-69
2023/04/07 09:26:24;;;;;;;9.03;5.00;;;12.80;22.50;;;;;;5029497;28;46704;-68
2023/04/07 09:28:54;;;;;;;8.33;5.43;;;12.70;22.10;;;;;;5027272;28;46499;-67
2023/04/07 09:31:24;;;;;;;6.93;5.00;;;12.60;22.20;;;;;;5027618;28;46323;-68
2023/04/07 09:33:51;;;;;;;7.20;4.80;;;12.80;22.00;;;;;;5029105;28;45863;-68
2023/04/07 09:36:17;;;;;;;8.30;4.77;;;13.00;21.30;;;;;;5028177;28;46493;-68
2023/04/07 09:38:44;;;;;;;7.10;4.70;;;13.10;21.60;;;;;;5026522;28;46407;-67
2023/04/07 09:41:18;;;;;;;11.27;4.80;;;13.50;20.80;;;;;;5028474;28;46294;-70
2023/04/07 09:43:44;;;;;;;11.53;4.77;;;13.90;19.40;;;;;;5027137;28;46482;-66
2023/04/07 09:46:15;;;;;;;6.97;5.17;;;14.00;19.80;;;;;;5028135;28;46289;-66
2023/04/07 09:48:45;;;;;;;9.37;4.90;;;14.50;18.60;;;;;;5027172;28;46488;-67
2023/04/07 09:51:15;;;;;;;9.20;5.23;;;14.90;18.80;;;;;;5026154;28;46384;-70
2023/04/07 09:53:51;;;;;;;11.00;5.90;;;15.00;17.70;;;;;;5030682;28;46509;-65
2023/04/07 09:56:18;;;;;;;8.83;5.50;;;14.90;17.10;;;;;;5026391;28;48041;-66
2023/04/07 09:58:46;;;;;;;7.50;4.60;;;15.00;17.80;;;;;;5031744;28;46787;-67
2023/04/07 10:01:12;;;;;;;8.20;6.00;;;15.10;17.90;;;;;;5033844;28;46649;-66
2023/04/07 10:03:38;;;;;;;6.83;4.83;;;15.00;18.00;;;;;;5031253;28;46402;-66
2023/04/07 10:06:05;;;;;;;8.03;4.90;;;14.90;17.80;;;;;;5029962;28;47194;-66
2023/04/07 10:08:34;;;;;;;9.33;5.00;;;15.30;17.70;;;;;;5029657;28;45850;-67
2023/04/07 10:11:05;;;;;;;8.97;4.97;;;15.40;17.10;;;;;;5028599;28;46372;-67
2023/04/07 10:13:32;;;;;;;7.20;5.00;;;15.40;16.70;;;;;;5034643;28;46496;-66
2023/04/07 10:15:59;;;;;;;8.07;5.40;;;15.50;16.50;;;;;;5035254;28;47355;-66
2023/04/07 10:18:31;;;;;;;9.33;5.17;;;15.80;15.90;;;;;;5027411;28;45782;-66
2023/04/07 10:21:00;;;;;;;6.23;4.60;;;16.10;15.50;;;;;;5029466;28;46642;-66
2023/04/07 10:23:48;;;;;;;10.30;4.97;;;16.40;15.20;;;;;;5030350;28;46366;-65
2023/04/07 10:26:22;;;;;;;8.10;4.90;;;16.30;15.00;;;;;;5047269;28;47005;-65
2023/04/07 10:28:54;;;;;;;8.47;5.10;;;16.20;15.20;;;;;;5026774;28;46181;-65
2023/04/07 10:31:21;;;;;;;9.40;5.47;;;16.50;14.80;;;;;;5037984;28;46249;-67
2023/04/07 10:33:48;;;;;;;11.40;5.20;;;16.50;14.50;;;;;;5034826;28;46412;-65
2023/04/07 10:36:16;;;;;;;8.47;5.63;;;16.50;14.70;;;;;;5028868;28;47292;-67
2023/04/07 10:38:42;;;;;;;13.20;5.50;;;16.60;14.50;;;;;;5027535;28;46484;-67
2023/04/07 10:41:36;;;;;;;6.80;5.20;;;16.70;14.30;;;;;;5030647;28;45836;-67
2023/04/07 10:44:06;;;;;;;8.13;5.33;;;16.40;14.00;;;;;;5026083;28;46057;-67
2023/04/07 10:46:55;;;;;;;10.50;6.40;;;15.80;14.80;;;;;;5029488;28;46652;-68
2023/04/07 10:49:21;;;;;;;11.60;6.30;;;15.50;14.20;;;;;;5031023;28;47482;-67
2023/04/07 10:52:13;;;;;;;12.13;5.50;;;15.60;14.20;;;;;;5033622;28;45765;-66
2023/04/07 10:54:39;;;;;;;12.10;6.10;;;15.70;13.50;;;;;;5030864;28;46450;-68
2023/04/07 10:57:07;;;;;;;11.70;6.47;;;15.50;14.30;;;;;;5030168;28;46621;-66
2023/04/07 10:59:33;;;;;;;9.27;5.30;;;15.20;13.60;;;;;;5027659;28;46522;-67
2023/04/07 11:02:15;;;;;;;8.03;5.27;;;14.80;14.40;;;;;;5026975;28;46455;-66
2023/04/07 11:04:45;;;;;;;9.57;5.80;;;14.50;15.10;;;;;;5031761;28;46154;-66
2023/04/07 11:07:12;;;;;;;8.43;6.27;;;14.30;15.30;;;;;;5029565;28;46513;-67
2023/04/07 11:09:39;;;;;;;7.60;4.90;;;14.10;14.80;;;;;;5028640;28;45760;-67
2023/04/07 11:12:05;;;;;;;10.13;5.77;;;14.20;14.70;;;;;;5029493;28;46343;-66
2023/04/07 11:14:32;;;;;;;9.27;5.73;;;14.60;14.30;;;;;;5030915;28;46727;-66
2023/04/07 11:17:00;;;;;;;8.57;5.13;;;14.70;14.30;;;;;;5028735;28;46900;-65
2023/04/07 11:19:26;;;;;;;10.20;5.60;;;14.70;14.00;;;;;;5031709;28;46326;-65
2023/04/07 11:22:15;;;;;;;8.60;5.70;;;14.30;14.50;;;;;;5031753;28;45834;-65
2023/04/07 11:24:42;;;;;;;10.00;5.97;;;14.30;14.60;;;;;;5031558;28;46483;-65
2023/04/07 11:27:14;;;;;;;8.90;5.47;;;14.30;14.90;;;;;;5029890;28;47156;-66
2023/04/07 11:29:39;;;;;;;8.00;5.30;;;14.10;14.90;;;;;;5028534;28;46642;-65
2023/04/07 11:32:05;;;;;;;10.23;5.50;;;14.10;15.10;;;;;;5031377;28;46715;-66
2023/04/07 11:34:33;;;;;;;8.60;5.53;;;14.10;14.90;;;;;;5031086;28;47381;-65
2023/04/07 11:37:25;;;;;;;8.90;5.50;;;14.20;14.90;;;;;;5025896;28;46600;-69
2023/04/07 11:39:54;;;;;;;9.53;5.70;;;14.20;15.00;;;;;;5032356;28;46496;-68
2023/04/07 11:42:37;;;;;;;8.07;5.33;;;13.70;14.80;;;;;;5028089;28;46433;-67
2023/04/07 11:45:03;;;;;;;8.40;4.87;;;13.50;15.40;;;;;;5030032;28;46380;-67
2023/04/07 11:47:39;;;;;;;10.37;5.53;;;13.70;15.00;;;;;;5029029;28;49511;-68
2023/04/07 11:50:06;;;;;;;8.03;5.60;;;13.70;15.10;;;;;;5026171;28;45791;-67
2023/04/07 11:53:01;;;;;;;8.57;5.30;;;13.60;15.30;;;;;;5030055;28;45775;-67
2023/04/07 11:55:28;;;;;;;8.23;5.40;;;13.70;15.30;;;;;;5026813;28;46502;-66
2023/04/07 11:57:54;;;;;;;8.60;5.03;;;13.90;15.10;;;;;;5027994;28;46534;-67
2023/04/07 12:00:20;;;;;;;8.63;5.30;;;13.90;14.90;;;;;;5029270;28;45919;-66
2023/04/07 12:02:45;;;;;;;8.10;5.30;;;13.90;14.80;;;;;;5032010;28;46822;-66
2023/04/07 12:05:11;;;;;;;9.90;4.70;;;14.20;14.90;;;;;;5032075;28;46761;-66
2023/04/07 12:07:39;;;;;;;9.67;4.73;;;14.20;16.00;;;;;;5030242;28;46722;-66
2023/04/07 12:10:20;;;;;;;7.97;5.40;;;14.20;14.90;;;;;;5026814;28;47277;-66
2023/04/07 12:12:46;;;;;;;8.20;4.33;;;14.30;15.20;;;;;;5029158;28;46644;-66
2023/04/07 12:15:15;;;;;;;7.47;4.90;;;14.30;15.10;;;;;;5026654;28;46718;-67
2023/04/07 12:17:46;;;;;;;10.17;4.70;;;14.30;15.20;;;;;;5029583;28;47851;-67
2023/04/07 12:20:12;;;;;;;10.10;5.17;;;14.50;14.80;;;;;;5026980;28;45856;-66
2023/04/07 12:22:38;;;;;;;6.70;4.77;;;14.50;14.60;;;;;;5046818;28;46386;-66
2023/04/07 12:25:04;;;;;;;10.90;4.87;;;14.70;14.80;;;;;;5032425;28;46907;-67
2023/04/07 12:27:30;;;;;;;10.37;5.27;;;14.50;14.20;;;;;;5026597;28;46201;-68
2023/04/07 12:29:56;;;;;;;8.53;4.37;;;14.60;14.20;;;;;;5029361;28;46785;-66
2023/04/07 12:32:21;;;;;;;7.33;4.73;;;14.40;14.00;;;;;;5031989;28;46274;-67
2023/04/07 12:34:47;;;;;;;7.40;4.50;;;14.60;14.10;;;;;;5028667;28;46422;-66
2023/04/07 12:37:12;;;;;;;9.80;4.80;;;14.90;13.90;;;;;;5034158;28;46363;-66
2023/04/07 12:39:38;;;;;;;8.40;5.57;;;14.70;13.90;;;;;;5031958;28;46405;-66
2023/04/07 12:42:04;;;;;;;8.53;5.07;;;14.50;14.10;;;;;;5030568;28;46776;-66
2023/04/07 12:44:30;;;;;;;8.30;5.40;;;14.30;14.30;;;;;;5030493;28;46602;-66
2023/04/07 12:46:55;;;;;;;10.10;5.83;;;14.10;14.60;;;;;;5027502;28;46346;-66
2023/04/07 12:49:21;;;;;;;9.03;5.70;;;14.00;14.70;;;;;;5028547;28;46429;-66
2023/04/07 12:51:47;;;;;;;11.30;5.60;;;14.00;14.60;;;;;;5029692;28;46406;-66